Finlandia — OJPP — position and weather

sailwx.info

Track history (hours):
 
Tides and Currents Weather Stations Pressure Air Temp Water Temp Dewpoint Dewpoint Depression Visibility Wind Speed Wind Dir Waves Ship Positions

Finlandia

Last reported at 2017-Jul-21 16:31 UTC. Time now 2017-Jul-21 16:50 UTC.
Position N 59°46' E 024°45'.

Length 175 m; draft 7 m.

Type: Passenger vessel. MMSI: 230628000.

Date/timePositionNaut miles runAvg speedWind from/ knotsBaromVisibWave heightAir tempDewpointWater temp
2017-Jul-21 16:31N 59°46' E 024°45'1020.3
2017-Jul-21 16:01N 59°36' E 024°41'1019.1
2017-Jul-21 15:31N 59°27' E 024°47'1 1.2
2017-Jul-21 15:01N 59°27' E 024°46'0 0.0
2017-Jul-21 14:31N 59°27' E 024°46'611.6
2017-Jul-21 14:01N 59°32' E 024°43'1021.0
2017-Jul-21 13:31N 59°43' E 024°46'1122.9
2017-Jul-21 13:01N 59°54' E 024°52'1122.3
2017-Jul-21 12:30N 60°05' E 024°54'4 8.2
2017-Jul-21 12:00N 60°09' E 024°55'0 0.0
2017-Jul-21 11:30N 60°09' E 024°55'0 0.3
2017-Jul-21 11:00N 60°09' E 024°55'715.0
2017-Jul-21 10:31N 60°01' E 024°55'1223.5
2017-Jul-21 10:01N 59°50' E 024°47'1122.9
2017-Jul-21 09:31N 59°39' E 024°41'1223.2
2017-Jul-21 09:01N 59°28' E 024°47'1 2.5
2017-Jul-21 08:30N 59°27' E 024°46'0 0.0
2017-Jul-21 08:01N 59°27' E 024°46'4 8.1
2017-Jul-21 07:31N 59°31' E 024°44'918.7
2017-Jul-21 07:01N 59°40' E 024°40'1019.4
2017-Jul-21 06:31N 59°49' E 024°47'1019.6
2017-Jul-21 06:01N 59°58' E 024°54'918.8
2017-Jul-21 05:30N 60°08' E 024°54'1 2.7
2017-Jul-21 04:59N 60°09' E 024°55'0 0.0
2017-Jul-21 04:29N 60°09' E 024°55'0 0.0
2017-Jul-21 03:59N 60°09' E 024°55'2 3.5
2017-Jul-21 03:30N 60°07' E 024°54'612.8
2017-Jul-21 03:00N 60°01' E 024°55'611.5
2017-Jul-21 02:30N 59°55' E 024°52'4 7.9
2017-Jul-21 02:00N 59°51' E 024°51'4 7.9
2017-Jul-21 01:30N 59°48' E 024°49'4 7.9
2017-Jul-21 01:00N 59°44' E 024°47'4 8.0
2017-Jul-21 00:30N 59°40' E 024°44'4 8.0
2017-Jul-21 00:00N 59°36' E 024°41'4 8.0
2017-Jul-20 23:30N 59°33' E 024°44'4 7.8
2017-Jul-20 23:00N 59°29' E 024°46'2 4.3
2017-Jul-20 22:30N 59°27' E 024°46'0 0.0
2017-Jul-20 22:00N 59°27' E 024°46'1 1.2
2017-Jul-20 21:30N 59°27' E 024°47'917.4
2017-Jul-20 21:01N 59°35' E 024°41'917.3
2017-Jul-20 20:31N 59°43' E 024°46'918.7
2017-Jul-20 20:00N 59°52' E 024°51'1020.7
2017-Jul-20 19:30N 60°03' E 024°54'612.5
2017-Jul-20 19:00N 60°09' E 024°55'0 0.0
2017-Jul-20 18:29N 60°09' E 024°55'0 0.0
2017-Jul-20 17:59N 60°09' E 024°55'3 6.9
2017-Jul-20 17:30N 60°06' E 024°54'1020.4
2017-Jul-20 17:01N 59°56' E 024°52'1121.4
2017-Jul-20 16:31N 59°46' E 024°44'1223.8
2017-Jul-20 16:01N 59°34' E 024°43'714.4
2017-Jul-20 15:30N 59°27' E 024°46'0 0.0
2017-Jul-20 15:00N 59°27' E 024°46'6 6.2
2017-Jul-20 14:01N 59°33' E 024°42'1223.8
2017-Jul-20 13:31N 59°45' E 024°43'1224.7
2017-Jul-20 13:01N 59°56' E 024°52'1122.5
2017-Jul-20 12:30N 60°07' E 024°54'2 3.5
2017-Jul-20 12:00N 60°09' E 024°55'0 0.0
2017-Jul-20 11:31N 60°09' E 024°55'0 0.3
2017-Jul-20 11:00N 60°09' E 024°55'815.1
2017-Jul-20 10:31N 60°01' E 024°55'1223.3
2017-Jul-20 10:01N 59°50' E 024°51'1223.3
2017-Jul-20 09:31N 59°39' E 024°43'1122.2
2017-Jul-20 09:01N 59°28' E 024°47'1 2.3
2017-Jul-20 08:28N 59°27' E 024°46'0 0.0
2017-Jul-20 07:58N 59°27' E 024°46'4 8.7
2017-Jul-20 07:31N 59°31' E 024°44'917.4
2017-Jul-20 07:01N 59°39' E 024°42'918.9
2017-Jul-20 06:31N 59°48' E 024°49'1019.6
2017-Jul-20 06:01N 59°57' E 024°56'918.2
2017-Jul-20 05:31N 60°06' E 024°54'3 5.7
2017-Jul-20 04:59N 60°09' E 024°55'0 0.0
2017-Jul-20 04:30N 60°09' E 024°55'0 0.0
2017-Jul-20 03:59N 60°09' E 024°55'0 0.3
2017-Jul-20 03:31N 60°09' E 024°54'611.1
2017-Jul-20 03:01N 60°03' E 024°54'612.1
2017-Jul-20 02:30N 59°57' E 024°54'510.1
2017-Jul-20 02:01N 59°52' E 024°51'4 9.0
2017-Jul-20 01:30N 59°48' E 024°49'4 8.3
2017-Jul-20 01:00N 59°44' E 024°47'4 7.7
2017-Jul-20 00:30N 59°40' E 024°45'4 8.6
2017-Jul-20 00:00N 59°36' E 024°41'4 7.8
2017-Jul-19 23:30N 59°33' E 024°44'4 7.8
2017-Jul-19 23:00N 59°29' E 024°46'2 4.6
2017-Jul-19 22:30N 59°27' E 024°46'0 0.0
2017-Jul-19 22:00N 59°27' E 024°46'0 0.8
2017-Jul-19 21:31N 59°27' E 024°47'815.8
2017-Jul-19 21:01N 59°34' E 024°41'816.2
2017-Jul-19 20:31N 59°42' E 024°46'917.4
2017-Jul-19 20:01N 59°50' E 024°50'1019.4
2017-Jul-19 19:30N 59°60' E 024°54'815.7
2017-Jul-19 19:00N 60°08' E 024°54'1 2.3
2017-Jul-19 18:28N 60°09' E 024°55'0 0.0
2017-Jul-19 18:00N 60°09' E 024°55'4 8.6
2017-Jul-19 17:30N 60°05' E 024°54'1122.0
2017-Jul-19 17:00N 59°54' E 024°52'1122.0
2017-Jul-19 16:31N 59°43' E 024°47'1121.2
2017-Jul-19 16:01N 59°33' E 024°44'611.9
2017-Jul-19 15:30N 59°27' E 024°46'0 0.0
2017-Jul-19 15:00N 59°27' E 024°46'0 0.0
2017-Jul-19 14:30N 59°27' E 024°46'815.3
2017-Jul-19 14:01N 59°34' E 024°41'1224.4
2017-Jul-19 13:31N 59°46' E 024°43'1224.7
2017-Jul-19 13:01N 59°58' E 024°53'1121.5
2017-Jul-19 12:30N 60°08' E 024°54'1 1.4
2017-Jul-19 12:00N 60°09' E 024°55'0 0.0
2017-Jul-19 11:30N 60°09' E 024°55'0 0.3
2017-Jul-19 11:00N 60°09' E 024°55'815.8
2017-Jul-19 10:31N 60°01' E 024°54'1225.0
2017-Jul-19 10:01N 59°49' E 024°51'1325.3
2017-Jul-19 09:31N 59°37' E 024°41'1020.6
2017-Jul-19 09:01N 59°27' E 024°46'0 0.8
2017-Jul-19 08:30N 59°27' E 024°46'0 0.0
2017-Jul-19 07:58N 59°27' E 024°46'3 7.1
2017-Jul-19 07:30N 59°30' E 024°45'1019.1
2017-Jul-19 07:00N 59°39' E 024°42'1019.8
2017-Jul-19 06:30N 59°49' E 024°49'1020.2
2017-Jul-19 06:00N 59°59' E 024°54'918.2
2017-Jul-19 05:30N 60°08' E 024°54'1 2.7
2017-Jul-19 05:00N 60°09' E 024°55'0 0.0
2017-Jul-19 04:30N 60°09' E 024°55'0 0.0
2017-Jul-19 04:00N 60°09' E 024°55'0 0.0
2017-Jul-19 03:30N 60°09' E 024°55'0 0.0
2017-Jul-19 03:00N 60°09' E 024°55'0 0.0
2017-Jul-19 02:30N 60°09' E 024°55'0 0.0
2017-Jul-19 02:00N 60°09' E 024°55'0 0.0
2017-Jul-19 01:30N 60°09' E 024°55'0 0.0
2017-Jul-19 01:00N 60°09' E 024°55'0 0.0
2017-Jul-19 00:30N 60°09' E 024°55'0 0.0
2017-Jul-19 00:00N 60°09' E 024°55'0 0.0
2017-Jul-18 23:30N 60°09' E 024°55'0 0.0
2017-Jul-18 23:00N 60°09' E 024°55'0 0.0
2017-Jul-18 22:30N 60°09' E 024°55'0 0.0
2017-Jul-18 22:00N 60°09' E 024°55'0 0.0
2017-Jul-18 21:30N 60°09' E 024°55'0 0.0
2017-Jul-18 21:00N 60°09' E 024°55'0 0.0
2017-Jul-18 20:29N 60°09' E 024°55'0 0.0
2017-Jul-18 19:58N 60°09' E 024°55'0 0.0
2017-Jul-18 19:24N 60°09' E 024°55'0 0.0
2017-Jul-18 19:00N 60°09' E 024°55'0 0.0
2017-Jul-18 18:30N 60°09' E 024°55'0 0.0
2017-Jul-18 18:00N 60°09' E 024°55'5 9.1
2017-Jul-18 17:30N 60°04' E 024°54'1020.2
2017-Jul-18 17:00N 59°54' E 024°51'1121.1
2017-Jul-18 16:30N 59°45' E 024°42'1020.7
2017-Jul-18 16:01N 59°35' E 024°43'816.0
2017-Jul-18 15:31N 59°27' E 024°46'0 0.5
2017-Jul-18 14:58N 59°27' E 024°46'8 7.8
2017-Jul-18 14:01N 59°34' E 024°42'1223.0
2017-Jul-18 13:31N 59°45' E 024°47'1224.7
2017-Jul-18 13:01N 59°57' E 024°53'1122.1
2017-Jul-18 12:31N 60°08' E 024°54'1 1.7
2017-Jul-18 12:01N 60°09' E 024°55'0 0.0
2017-Jul-18 11:30N 60°09' E 024°55'0 0.4
2017-Jul-18 11:01N 60°09' E 024°54'918.6
2017-Jul-18 10:31N 59°60' E 024°55'1325.6
2017-Jul-18 10:01N 59°48' E 024°46'1325.3
2017-Jul-18 09:30N 59°35' E 024°42'917.1
2017-Jul-18 09:00N 59°27' E 024°46'0 0.2
2017-Jul-18 08:31N 59°27' E 024°46'0 0.0
2017-Jul-18 08:01N 59°27' E 024°46'4 8.9
2017-Jul-18 07:30N 59°31' E 024°44'918.0
2017-Jul-18 07:00N 59°40' E 024°43'1019.3
2017-Jul-18 06:30N 59°49' E 024°52'918.9
2017-Jul-18 06:01N 59°58' E 024°56'918.4
2017-Jul-18 05:30N 60°07' E 024°54'2 4.0
2017-Jul-18 05:00N 60°09' E 024°55'0 0.0
2017-Jul-18 04:30N 60°09' E 024°55'0 0.0
2017-Jul-18 04:00N 60°09' E 024°55'0 0.0
2017-Jul-18 03:30N 60°09' E 024°55'0 0.0
2017-Jul-18 03:00N 60°09' E 024°55'0 0.0
2017-Jul-18 02:30N 60°09' E 024°55'0 0.0
2017-Jul-18 02:00N 60°09' E 024°55'0 0.0
2017-Jul-18 01:30N 60°09' E 024°55'0 0.0
2017-Jul-18 00:57N 60°09' E 024°55'0 0.0
2017-Jul-18 00:30N 60°09' E 024°55'0 0.0
2017-Jul-18 00:00N 60°09' E 024°55'0 0.0
2017-Jul-17 23:30N 60°09' E 024°55'0 0.0
2017-Jul-17 23:00N 60°09' E 024°55'0 0.0
2017-Jul-17 22:30N 60°09' E 024°55'0 0.0
2017-Jul-17 21:57N 60°09' E 024°55'0 0.0
2017-Jul-17 21:30N 60°09' E 024°55'0 0.0
2017-Jul-17 21:00N 60°09' E 024°55'0 0.0
2017-Jul-17 20:29N 60°09' E 024°55'0 0.0
2017-Jul-17 19:58N 60°09' E 024°55'0 0.0
2017-Jul-17 19:30N 60°09' E 024°55'0 0.0
2017-Jul-17 19:00N 60°09' E 024°55'0 0.0
2017-Jul-17 18:30N 60°09' E 024°55'0 0.0
2017-Jul-17 18:00N 60°09' E 024°55'5 9.1
2017-Jul-17 17:30N 60°04' E 024°53'1020.8
2017-Jul-17 17:00N 59°54' E 024°53'1223.2
2017-Jul-17 16:31N 59°43' E 024°47'1121.4
2017-Jul-17 16:01N 59°32' E 024°44'611.3
2017-Jul-17 15:30N 59°27' E 024°46'0 0.0
2017-Jul-17 15:00N 59°27' E 024°46'0 0.1
2017-Jul-17 14:30N 59°27' E 024°46'918.2
2017-Jul-17 14:01N 59°35' E 024°40'1326.3
2017-Jul-17 13:31N 59°48' E 024°45'1325.9
2017-Jul-17 13:01N 60°00' E 024°54'917.0
2017-Jul-17 12:30N 60°09' E 024°55'0 0.0
2017-Jul-17 12:00N 60°09' E 024°55'0 0.0
2017-Jul-17 11:30N 60°09' E 024°55'1 1.2
2017-Jul-17 11:00N 60°08' E 024°54'1121.1
2017-Jul-17 10:31N 59°58' E 024°54'1326.0
2017-Jul-17 10:01N 59°46' E 024°44'1325.3
2017-Jul-17 09:31N 59°33' E 024°43'713.1
2017-Jul-17 09:01N 59°27' E 024°46'0 0.0
2017-Jul-17 08:31N 59°27' E 024°46'0 0.0
2017-Jul-17 08:01N 59°27' E 024°46'4 7.3
2017-Jul-17 07:30N 59°30' E 024°44'917.7
2017-Jul-17 07:01N 59°39' E 024°42'1019.7
2017-Jul-17 06:31N 59°48' E 024°51'1020.2
2017-Jul-17 06:00N 59°58' E 024°56'918.5
2017-Jul-17 05:31N 60°07' E 024°54'2 4.5
2017-Jul-17 05:00N 60°09' E 024°55'0 0.0
2017-Jul-17 04:30N 60°09' E 024°55'0 0.0
2017-Jul-17 04:00N 60°09' E 024°55'0 0.0
2017-Jul-17 03:30N 60°09' E 024°55'0 0.0
2017-Jul-17 03:00N 60°09' E 024°55'0 0.0
2017-Jul-17 02:30N 60°09' E 024°55'0 0.0
2017-Jul-17 02:00N 60°09' E 024°55'0 0.0
2017-Jul-17 01:30N 60°09' E 024°55'0 0.0
2017-Jul-17 01:00N 60°09' E 024°55'0 0.0
2017-Jul-17 00:30N 60°09' E 024°55'0 0.0
2017-Jul-17 00:00N 60°09' E 024°55'0 0.0
2017-Jul-16 23:30N 60°09' E 024°55'0 0.0
2017-Jul-16 23:00N 60°09' E 024°55'0 0.0
2017-Jul-16 22:30N 60°09' E 024°55'0 0.0
2017-Jul-16 22:00N 60°09' E 024°55'0 0.0
2017-Jul-16 21:30N 60°09' E 024°55'0 0.0
2017-Jul-16 20:59N 60°09' E 024°55'0 0.0
2017-Jul-16 20:29N 60°09' E 024°55'0 0.0
2017-Jul-16 19:59N 60°09' E 024°55'0 0.0
2017-Jul-16 19:28N 60°09' E 024°55'0 0.0
2017-Jul-16 19:00N 60°09' E 024°55'0 0.0
2017-Jul-16 18:30N 60°09' E 024°55'0 0.0
2017-Jul-16 18:01N 60°09' E 024°55'5 9.3
2017-Jul-16 17:30N 60°04' E 024°53'1020.9
2017-Jul-16 17:00N 59°54' E 024°53'1121.3
2017-Jul-16 16:30N 59°44' E 024°47'1121.7
2017-Jul-16 16:00N 59°33' E 024°43'612.8
2017-Jul-16 15:31N 59°27' E 024°46'0 0.1
2017-Jul-16 15:00N 59°27' E 024°46'0 0.0
2017-Jul-16 14:30N 59°27' E 024°46'510.1
2017-Jul-16 14:00N 59°32' E 024°43'1020.1
2017-Jul-16 13:30N 59°42' E 024°41'1020.7
2017-Jul-16 13:00N 59°51' E 024°48'1121.6
2017-Jul-16 12:31N 60°02' E 024°54'714.6
2017-Jul-16 12:00N 60°09' E 024°55'0 0.0
2017-Jul-16 11:30N 60°09' E 024°55'2 3.5
2017-Jul-16 11:01N 60°07' E 024°54'1122.9
2017-Jul-16 10:31N 59°56' E 024°53'1122.7
2017-Jul-16 10:01N 59°45' E 024°50'1223.2
2017-Jul-16 09:30N 59°33' E 024°43'713.9
2017-Jul-16 09:00N 59°27' E 024°46'0 0.0
2017-Jul-16 08:31N 59°27' E 024°46'0 0.0
2017-Jul-16 08:00N 59°27' E 024°46'4 8.8
2017-Jul-16 07:30N 59°31' E 024°44'918.6
2017-Jul-16 07:00N 59°40' E 024°43'816.6
2017-Jul-16 06:31N 59°48' E 024°48'918.5
2017-Jul-16 06:01N 59°57' E 024°53'918.1
2017-Jul-16 05:31N 60°06' E 024°54'3 5.7
2017-Jul-16 05:00N 60°09' E 024°55'0 0.0
2017-Jul-16 04:30N 60°09' E 024°55'0 0.0
2017-Jul-16 04:00N 60°09' E 024°55'0 0.0
2017-Jul-16 03:30N 60°09' E 024°55'0 0.0
2017-Jul-16 02:59N 60°09' E 024°55'0 0.0
2017-Jul-16 02:25N 60°09' E 024°55'0 0.0
2017-Jul-16 01:58N 60°09' E 024°55'0 0.0
2017-Jul-16 01:30N 60°09' E 024°55'0 0.0
2017-Jul-16 00:58N 60°09' E 024°55'0 0.0
2017-Jul-16 00:28N 60°09' E 024°55'0 0.0
2017-Jul-15 23:59N 60°09' E 024°55'0 0.0
2017-Jul-15 23:28N 60°09' E 024°55'0 0.0
2017-Jul-15 22:58N 60°09' E 024°55'0 0.0
2017-Jul-15 22:25N 60°09' E 024°55'0 0.0
2017-Jul-15 22:00N 60°09' E 024°55'0 0.0
2017-Jul-15 21:28N 60°09' E 024°55'0 0.0
2017-Jul-15 20:59N 60°09' E 024°55'0 0.0
2017-Jul-15 20:25N 60°09' E 024°55'0 0.0
2017-Jul-15 20:00N 60°09' E 024°55'0 0.0
2017-Jul-15 19:24N 60°09' E 024°55'0 0.0
2017-Jul-15 18:56N 60°09' E 024°55'0 0.0
2017-Jul-15 18:27N 60°09' E 024°55'0 0.0
2017-Jul-15 18:01N 60°09' E 024°55'510.9
2017-Jul-15 17:30N 60°04' E 024°53'1020.1
2017-Jul-15 17:00N 59°54' E 024°53'1020.4
2017-Jul-15 16:30N 59°44' E 024°47'1020.2
2017-Jul-15 16:01N 59°34' E 024°43'714.8
2017-Jul-15 15:31N 59°27' E 024°46'0 0.2
2017-Jul-15 15:01N 59°27' E 024°46'6 5.9
2017-Jul-15 14:01N 59°32' E 024°43'918.1
2017-Jul-15 13:31N 59°41' E 024°45'1020.6
2017-Jul-15 13:00N 59°51' E 024°51'1020.4
2017-Jul-15 12:31N 60°01' E 024°54'815.4
2017-Jul-15 12:00N 60°09' E 024°55'0 0.0
2017-Jul-15 11:30N 60°09' E 024°55'1 1.2
2017-Jul-15 11:00N 60°08' E 024°54'1019.4
2017-Jul-15 10:30N 59°59' E 024°54'1122.4
2017-Jul-15 10:01N 59°48' E 024°46'1122.1
2017-Jul-15 09:31N 59°37' E 024°41'1020.8
2017-Jul-15 09:01N 59°27' E 024°46'1 1.7
2017-Jul-15 08:30N 59°27' E 024°46'0 0.0
2017-Jul-15 08:01N 59°27' E 024°46'510.8
2017-Jul-15 07:31N 59°32' E 024°43'917.1
2017-Jul-15 07:01N 59°40' E 024°44'918.7
2017-Jul-15 06:31N 59°49' E 024°49'918.7
2017-Jul-15 06:00N 59°59' E 024°53'917.7
2017-Jul-15 05:30N 60°07' E 024°54'2 3.1
2017-Jul-15 05:00N 60°09' E 024°55'0 0.0
2017-Jul-15 04:30N 60°09' E 024°55'0 0.0
2017-Jul-15 04:00N 60°09' E 024°55'0 0.2
2017-Jul-15 03:31N 60°09' E 024°55'4 8.6
2017-Jul-15 03:00N 60°05' E 024°54'713.6
2017-Jul-15 02:30N 59°58' E 024°54'4 8.9
2017-Jul-15 02:00N 59°54' E 024°50'4 8.8
2017-Jul-15 01:30N 59°50' E 024°46'4 8.8
2017-Jul-15 01:00N 59°46' E 024°41'4 8.7
2017-Jul-15 00:30N 59°42' E 024°41'4 8.8
2017-Jul-15 00:00N 59°37' E 024°41'4 8.4
2017-Jul-14 23:30N 59°33' E 024°43'4 8.3
2017-Jul-14 23:00N 59°29' E 024°46'3 5.5
2017-Jul-14 22:30N 59°27' E 024°46'0 0.0
2017-Jul-14 22:00N 59°27' E 024°46'1 1.7
2017-Jul-14 21:31N 59°27' E 024°47'815.5
2017-Jul-14 21:00N 59°34' E 024°41'917.1
2017-Jul-14 20:30N 59°43' E 024°46'918.4
2017-Jul-14 20:01N 59°52' E 024°50'918.3
2017-Jul-14 19:31N 60°01' E 024°54'816.6
2017-Jul-14 19:00N 60°09' E 024°55'0 0.1
2017-Jul-14 18:31N 60°09' E 024°55'0 0.0
2017-Jul-14 18:00N 60°09' E 024°55'510.2
2017-Jul-14 17:30N 60°04' E 024°54'1019.9
2017-Jul-14 17:01N 59°54' E 024°53'1019.9
2017-Jul-14 16:30N 59°44' E 024°48'1122.4
2017-Jul-14 16:00N 59°33' E 024°43'713.3
2017-Jul-14 15:31N 59°27' E 024°46'0 0.3
2017-Jul-14 15:00N 59°27' E 024°46'0 0.0
2017-Jul-14 14:31N 59°27' E 024°46'713.6
2017-Jul-14 14:01N 59°33' E 024°42'1121.6
2017-Jul-14 13:31N 59°44' E 024°47'1223.6
2017-Jul-14 13:01N 59°55' E 024°52'1122.7
2017-Jul-14 12:30N 60°07' E 024°54'2 4.7
2017-Jul-14 12:00N 60°09' E 024°55'0 0.0
2017-Jul-14 11:30N 60°09' E 024°55'0 1.0
2017-Jul-14 11:01N 60°09' E 024°54'816.8
2017-Jul-14 10:31N 60°00' E 024°54'1224.0
2017-Jul-14 10:01N 59°49' E 024°47'1223.1
2017-Jul-14 09:31N 59°38' E 024°41'1121.7
2017-Jul-14 09:01N 59°27' E 024°47'1 1.2
2017-Jul-14 08:30N 59°27' E 024°46'0 0.0
2017-Jul-14 08:00N 59°27' E 024°46'4 8.8
2017-Jul-14 07:30N 59°31' E 024°44'917.7
2017-Jul-14 07:01N 59°40' E 024°43'1019.3
2017-Jul-14 06:31N 59°49' E 024°49'1019.5
2017-Jul-14 06:00N 59°58' E 024°53'918.3
2017-Jul-14 05:30N 60°08' E 024°54'1 2.7
2017-Jul-14 04:58N 60°09' E 024°55'0 0.0
2017-Jul-14 04:29N 60°09' E 024°55'0 0.0
2017-Jul-14 03:58N 60°09' E 024°55'0 0.4
2017-Jul-14 03:30N 60°09' E 024°54'612.1
2017-Jul-14 03:00N 60°03' E 024°54'611.7
2017-Jul-14 02:30N 59°57' E 024°53'4 8.7
2017-Jul-14 02:00N 59°53' E 024°53'4 8.4
2017-Jul-14 01:30N 59°48' E 024°53'4 8.3
2017-Jul-14 01:00N 59°45' E 024°49'4 8.4
2017-Jul-14 00:31N 59°41' E 024°45'4 8.7
2017-Jul-14 00:00N 59°37' E 024°41'4 8.9
2017-Jul-13 23:30N 59°33' E 024°44'4 8.4
2017-Jul-13 23:00N 59°29' E 024°46'2 4.3
2017-Jul-13 22:30N 59°27' E 024°46'0 0.0
2017-Jul-13 22:00N 59°27' E 024°46'1 1.1
2017-Jul-13 21:30N 59°27' E 024°47'816.2
2017-Jul-13 21:00N 59°35' E 024°41'1020.5
2017-Jul-13 20:31N 59°44' E 024°47'816.9
2017-Jul-13 20:00N 59°52' E 024°51'1019.5
2017-Jul-13 19:31N 60°02' E 024°54'713.6
2017-Jul-13 19:00N 60°09' E 024°55'0 0.1
2017-Jul-13 18:30N 60°09' E 024°55'0 0.0
2017-Jul-13 18:00N 60°09' E 024°55'3 5.1
2017-Jul-13 17:31N 60°06' E 024°54'1122.0
2017-Jul-13 17:01N 59°55' E 024°53'1223.2
2017-Jul-13 16:31N 59°44' E 024°48'1121.9
2017-Jul-13 16:01N 59°34' E 024°43'713.9
2017-Jul-13 15:30N 59°27' E 024°46'0 0.1
2017-Jul-13 15:00N 59°27' E 024°46'0 0.0
2017-Jul-13 14:30N 59°27' E 024°46'715.0
2017-Jul-13 14:01N 59°34' E 024°41'1225.0
2017-Jul-13 13:31N 59°46' E 024°44'1325.8
2017-Jul-13 13:00N 59°58' E 024°54'1020.7
2017-Jul-13 12:30N 60°09' E 024°54'0 0.8
2017-Jul-13 12:00N 60°09' E 024°55'0 0.0
2017-Jul-13 11:29N 60°09' E 024°55'0 0.5
2017-Jul-13 11:01N 60°09' E 024°55'918.1
2017-Jul-13 10:31N 59°60' E 024°55'1223.1
2017-Jul-13 10:01N 59°49' E 024°47'1122.8
2017-Jul-13 09:31N 59°38' E 024°41'1121.9
2017-Jul-13 09:00N 59°27' E 024°47'1 1.6
2017-Jul-13 08:30N 59°27' E 024°46'0 0.0
2017-Jul-13 08:01N 59°27' E 024°46'4 8.8
2017-Jul-13 07:31N 59°31' E 024°44'917.2
2017-Jul-13 07:01N 59°40' E 024°43'1019.4
2017-Jul-13 06:31N 59°48' E 024°51'1019.0
2017-Jul-13 06:00N 59°57' E 024°56'918.1
2017-Jul-13 05:30N 60°06' E 024°54'3 5.0
2017-Jul-13 05:00N 60°09' E 024°55'0 0.0
2017-Jul-13 04:30N 60°09' E 024°55'0 0.0
2017-Jul-13 04:00N 60°09' E 024°55'0 0.4
2017-Jul-13 03:30N 60°09' E 024°55'510.2
2017-Jul-13 03:00N 60°04' E 024°54'612.7
2017-Jul-13 02:30N 59°57' E 024°54'611.1
2017-Jul-13 02:00N 59°52' E 024°54'5 9.1
2017-Jul-13 01:30N 59°48' E 024°51'4 7.9
2017-Jul-13 01:00N 59°45' E 024°45'4 8.0
2017-Jul-13 00:30N 59°41' E 024°41'5 9.1
2017-Jul-13 00:00N 59°37' E 024°41'4 8.9
2017-Jul-12 23:30N 59°33' E 024°44'4 8.9
2017-Jul-12 23:01N 59°28' E 024°47'2 3.6
2017-Jul-12 22:30N 59°27' E 024°46'0 0.0
2017-Jul-12 22:00N 59°27' E 024°46'1 1.5
2017-Jul-12 21:31N 59°27' E 024°47'713.5
2017-Jul-12 21:00N 59°33' E 024°42'815.4
2017-Jul-12 20:30N 59°41' E 024°44'917.8
2017-Jul-12 20:01N 59°50' E 024°49'816.8
2017-Jul-12 19:30N 59°58' E 024°53'917.3
2017-Jul-12 19:01N 60°06' E 024°54'3 5.3
2017-Jul-12 18:31N 60°09' E 024°55'0 0.1
2017-Jul-12 18:00N 60°09' E 024°55'612.3
2017-Jul-12 17:30N 60°03' E 024°54'1019.7
2017-Jul-12 17:00N 59°53' E 024°52'918.9
2017-Jul-12 16:30N 59°44' E 024°47'1121.5
2017-Jul-12 16:00N 59°33' E 024°43'713.4
2017-Jul-12 15:31N 59°27' E 024°46'0 0.3
2017-Jul-12 15:00N 59°27' E 024°46'7 7.2
2017-Jul-12 14:01N 59°34' E 024°42'1326.3
2017-Jul-12 13:31N 59°46' E 024°49'1223.5
2017-Jul-12 13:01N 59°58' E 024°54'1019.5
2017-Jul-12 12:30N 60°07' E 024°55'1 2.7
2017-Jul-12 11:58N 60°09' E 024°55'0 0.0
2017-Jul-12 11:30N 60°09' E 024°55'2 3.1
2017-Jul-12 11:00N 60°07' E 024°54'917.5
2017-Jul-12 10:31N 59°59' E 024°54'1223.1
2017-Jul-12 10:01N 59°48' E 024°45'1223.0
2017-Jul-12 09:31N 59°37' E 024°41'1020.2
2017-Jul-12 09:00N 59°27' E 024°47'0 0.8
2017-Jul-12 08:31N 59°27' E 024°46'0 0.0
2017-Jul-12 08:00N 59°27' E 024°46'3 5.8
2017-Jul-12 07:30N 59°30' E 024°45'918.4
2017-Jul-12 07:00N 59°39' E 024°41'1020.3
2017-Jul-12 06:30N 59°48' E 024°50'1020.3
2017-Jul-12 06:00N 59°57' E 024°56'1019.5
2017-Jul-12 05:31N 60°07' E 024°54'2 3.7
2017-Jul-12 05:00N 60°09' E 024°55'0 0.0
2017-Jul-12 04:25N 60°09' E 024°55'0 0.0
2017-Jul-12 03:58N 60°09' E 024°55'0 0.0
2017-Jul-12 03:28N 60°09' E 024°55'0 0.0
2017-Jul-12 02:58N 60°09' E 024°55'0 0.0
2017-Jul-12 02:28N 60°09' E 024°55'0 0.0
2017-Jul-12 01:58N 60°09' E 024°55'0 0.0
2017-Jul-12 01:28N 60°09' E 024°55'0 0.0
2017-Jul-12 00:58N 60°09' E 024°55'0 0.0
2017-Jul-12 00:28N 60°09' E 024°55'0 0.0
2017-Jul-11 23:58N 60°09' E 024°55'0 0.0
2017-Jul-11 23:28N 60°09' E 024°55'0 0.0
2017-Jul-11 22:58N 60°09' E 024°55'0 0.0
2017-Jul-11 22:28N 60°09' E 024°55'0 0.0
2017-Jul-11 21:58N 60°09' E 024°55'0 0.0
2017-Jul-11 21:25N 60°09' E 024°55'0 0.0
2017-Jul-11 20:58N 60°09' E 024°55'0 0.0
2017-Jul-11 20:30N 60°09' E 024°55'0 0.0
2017-Jul-11 19:59N 60°09' E 024°55'0 0.0
2017-Jul-11 19:29N 60°09' E 024°55'0 0.0
2017-Jul-11 18:58N 60°09' E 024°55'0 0.0
2017-Jul-11 18:28N 60°09' E 024°55'0 0.0
2017-Jul-11 18:00N 60°09' E 024°55'5 9.9
2017-Jul-11 17:30N 60°04' E 024°54'1223.6
2017-Jul-11 17:01N 59°52' E 024°52'1224.0
2017-Jul-11 16:31N 59°41' E 024°45'  
Track history (hours):
 
Tides and Currents Weather Stations Pressure Air Temp Water Temp Dewpoint Dewpoint Depression Visibility Wind Speed Wind Dir Waves Ship Positions

Finlandia

Last reported at 2017-Jul-21 16:31 UTC. Time now 2017-Jul-21 16:50 UTC.
Position N 59°46' E 024°45'.

Length 175 m; draft 7 m.

Type: Passenger vessel. MMSI: 230628000.

Date/timePositionNaut miles runAvg speedWind from/ knotsBaromVisibWave heightAir tempDewpointWater temp
2017-Jul-21 16:31N 59°46' E 024°45'1020.3
2017-Jul-21 16:01N 59°36' E 024°41'1019.1
2017-Jul-21 15:31N 59°27' E 024°47'1 1.2
2017-Jul-21 15:01N 59°27' E 024°46'0 0.0
2017-Jul-21 14:31N 59°27' E 024°46'611.6
2017-Jul-21 14:01N 59°32' E 024°43'1021.0
2017-Jul-21 13:31N 59°43' E 024°46'1122.9
2017-Jul-21 13:01N 59°54' E 024°52'1122.3
2017-Jul-21 12:30N 60°05' E 024°54'4 8.2
2017-Jul-21 12:00N 60°09' E 024°55'0 0.0
2017-Jul-21 11:30N 60°09' E 024°55'0 0.3
2017-Jul-21 11:00N 60°09' E 024°55'715.0
2017-Jul-21 10:31N 60°01' E 024°55'1223.5
2017-Jul-21 10:01N 59°50' E 024°47'1122.9
2017-Jul-21 09:31N 59°39' E 024°41'1223.2
2017-Jul-21 09:01N 59°28' E 024°47'1 2.5
2017-Jul-21 08:30N 59°27' E 024°46'0 0.0
2017-Jul-21 08:01N 59°27' E 024°46'4 8.1
2017-Jul-21 07:31N 59°31' E 024°44'918.7
2017-Jul-21 07:01N 59°40' E 024°40'1019.4
2017-Jul-21 06:31N 59°49' E 024°47'1019.6
2017-Jul-21 06:01N 59°58' E 024°54'918.8
2017-Jul-21 05:30N 60°08' E 024°54'1 2.7
2017-Jul-21 04:59N 60°09' E 024°55'0 0.0
2017-Jul-21 04:29N 60°09' E 024°55'0 0.0
2017-Jul-21 03:59N 60°09' E 024°55'2 3.5
2017-Jul-21 03:30N 60°07' E 024°54'612.8
2017-Jul-21 03:00N 60°01' E 024°55'611.5
2017-Jul-21 02:30N 59°55' E 024°52'4 7.9
2017-Jul-21 02:00N 59°51' E 024°51'4 7.9
2017-Jul-21 01:30N 59°48' E 024°49'4 7.9
2017-Jul-21 01:00N 59°44' E 024°47'4 8.0
2017-Jul-21 00:30N 59°40' E 024°44'4 8.0
2017-Jul-21 00:00N 59°36' E 024°41'4 8.0
2017-Jul-20 23:30N 59°33' E 024°44'4 7.8
2017-Jul-20 23:00N 59°29' E 024°46'2 4.3
2017-Jul-20 22:30N 59°27' E 024°46'0 0.0
2017-Jul-20 22:00N 59°27' E 024°46'1 1.2
2017-Jul-20 21:30N 59°27' E 024°47'917.4
2017-Jul-20 21:01N 59°35' E 024°41'917.3
2017-Jul-20 20:31N 59°43' E 024°46'918.7
2017-Jul-20 20:00N 59°52' E 024°51'1020.7
2017-Jul-20 19:30N 60°03' E 024°54'612.5
2017-Jul-20 19:00N 60°09' E 024°55'0 0.0
2017-Jul-20 18:29N 60°09' E 024°55'0 0.0
2017-Jul-20 17:59N 60°09' E 024°55'3 6.9
2017-Jul-20 17:30N 60°06' E 024°54'1020.4
2017-Jul-20 17:01N 59°56' E 024°52'1121.4
2017-Jul-20 16:31N 59°46' E 024°44'1223.8
2017-Jul-20 16:01N 59°34' E 024°43'714.4
2017-Jul-20 15:30N 59°27' E 024°46'0 0.0
2017-Jul-20 15:00N 59°27' E 024°46'6 6.2
2017-Jul-20 14:01N 59°33' E 024°42'1223.8
2017-Jul-20 13:31N 59°45' E 024°43'1224.7
2017-Jul-20 13:01N 59°56' E 024°52'1122.5
2017-Jul-20 12:30N 60°07' E 024°54'2 3.5
2017-Jul-20 12:00N 60°09' E 024°55'0 0.0
2017-Jul-20 11:31N 60°09' E 024°55'0 0.3
2017-Jul-20 11:00N 60°09' E 024°55'815.1
2017-Jul-20 10:31N 60°01' E 024°55'1223.3
2017-Jul-20 10:01N 59°50' E 024°51'1223.3
2017-Jul-20 09:31N 59°39' E 024°43'1122.2
2017-Jul-20 09:01N 59°28' E 024°47'1 2.3
2017-Jul-20 08:28N 59°27' E 024°46'0 0.0
2017-Jul-20 07:58N 59°27' E 024°46'4 8.7
2017-Jul-20 07:31N 59°31' E 024°44'917.4
2017-Jul-20 07:01N 59°39' E 024°42'918.9
2017-Jul-20 06:31N 59°48' E 024°49'1019.6
2017-Jul-20 06:01N 59°57' E 024°56'918.2
2017-Jul-20 05:31N 60°06' E 024°54'3 5.7
2017-Jul-20 04:59N 60°09' E 024°55'0 0.0
2017-Jul-20 04:30N 60°09' E 024°55'0 0.0
2017-Jul-20 03:59N 60°09' E 024°55'0 0.3
2017-Jul-20 03:31N 60°09' E 024°54'611.1
2017-Jul-20 03:01N 60°03' E 024°54'612.1
2017-Jul-20 02:30N 59°57' E 024°54'510.1
2017-Jul-20 02:01N 59°52' E 024°51'4 9.0
2017-Jul-20 01:30N 59°48' E 024°49'4 8.3
2017-Jul-20 01:00N 59°44' E 024°47'4 7.7
2017-Jul-20 00:30N 59°40' E 024°45'4 8.6
2017-Jul-20 00:00N 59°36' E 024°41'4 7.8
2017-Jul-19 23:30N 59°33' E 024°44'4 7.8
2017-Jul-19 23:00N 59°29' E 024°46'2 4.6
2017-Jul-19 22:30N 59°27' E 024°46'0 0.0
2017-Jul-19 22:00N 59°27' E 024°46'0 0.8
2017-Jul-19 21:31N 59°27' E 024°47'815.8
2017-Jul-19 21:01N 59°34' E 024°41'816.2
2017-Jul-19 20:31N 59°42' E 024°46'917.4
2017-Jul-19 20:01N 59°50' E 024°50'1019.4
2017-Jul-19 19:30N 59°60' E 024°54'815.7
2017-Jul-19 19:00N 60°08' E 024°54'1 2.3
2017-Jul-19 18:28N 60°09' E 024°55'0 0.0
2017-Jul-19 18:00N 60°09' E 024°55'4 8.6
2017-Jul-19 17:30N 60°05' E 024°54'1122.0
2017-Jul-19 17:00N 59°54' E 024°52'1122.0
2017-Jul-19 16:31N 59°43' E 024°47'1121.2
2017-Jul-19 16:01N 59°33' E 024°44'611.9
2017-Jul-19 15:30N 59°27' E 024°46'0 0.0
2017-Jul-19 15:00N 59°27' E 024°46'0 0.0
2017-Jul-19 14:30N 59°27' E 024°46'815.3
2017-Jul-19 14:01N 59°34' E 024°41'1224.4
2017-Jul-19 13:31N 59°46' E 024°43'1224.7
2017-Jul-19 13:01N 59°58' E 024°53'1121.5
2017-Jul-19 12:30N 60°08' E 024°54'1 1.4
2017-Jul-19 12:00N 60°09' E 024°55'0 0.0
2017-Jul-19 11:30N 60°09' E 024°55'0 0.3
2017-Jul-19 11:00N 60°09' E 024°55'815.8
2017-Jul-19 10:31N 60°01' E 024°54'1225.0
2017-Jul-19 10:01N 59°49' E 024°51'1325.3
2017-Jul-19 09:31N 59°37' E 024°41'1020.6
2017-Jul-19 09:01N 59°27' E 024°46'0 0.8
2017-Jul-19 08:30N 59°27' E 024°46'0 0.0
2017-Jul-19 07:58N 59°27' E 024°46'3 7.1
2017-Jul-19 07:30N 59°30' E 024°45'1019.1
2017-Jul-19 07:00N 59°39' E 024°42'1019.8
2017-Jul-19 06:30N 59°49' E 024°49'1020.2
2017-Jul-19 06:00N 59°59' E 024°54'918.2
2017-Jul-19 05:30N 60°08' E 024°54'1 2.7
2017-Jul-19 05:00N 60°09' E 024°55'0 0.0
2017-Jul-19 04:30N 60°09' E 024°55'0 0.0
2017-Jul-19 04:00N 60°09' E 024°55'0 0.0
2017-Jul-19 03:30N 60°09' E 024°55'0 0.0
2017-Jul-19 03:00N 60°09' E 024°55'0 0.0
2017-Jul-19 02:30N 60°09' E 024°55'0 0.0
2017-Jul-19 02:00N 60°09' E 024°55'0 0.0
2017-Jul-19 01:30N 60°09' E 024°55'0 0.0
2017-Jul-19 01:00N 60°09' E 024°55'0 0.0
2017-Jul-19 00:30N 60°09' E 024°55'0 0.0
2017-Jul-19 00:00N 60°09' E 024°55'0 0.0
2017-Jul-18 23:30N 60°09' E 024°55'0 0.0
2017-Jul-18 23:00N 60°09' E 024°55'0 0.0
2017-Jul-18 22:30N 60°09' E 024°55'0 0.0
2017-Jul-18 22:00N 60°09' E 024°55'0 0.0
2017-Jul-18 21:30N 60°09' E 024°55'0 0.0
2017-Jul-18 21:00N 60°09' E 024°55'0 0.0
2017-Jul-18 20:29N 60°09' E 024°55'0 0.0
2017-Jul-18 19:58N 60°09' E 024°55'0 0.0
2017-Jul-18 19:24N 60°09' E 024°55'0 0.0
2017-Jul-18 19:00N 60°09' E 024°55'0 0.0
2017-Jul-18 18:30N 60°09' E 024°55'0 0.0
2017-Jul-18 18:00N 60°09' E 024°55'5 9.1
2017-Jul-18 17:30N 60°04' E 024°54'1020.2
2017-Jul-18 17:00N 59°54' E 024°51'1121.1
2017-Jul-18 16:30N 59°45' E 024°42'1020.7
2017-Jul-18 16:01N 59°35' E 024°43'816.0
2017-Jul-18 15:31N 59°27' E 024°46'0 0.5
2017-Jul-18 14:58N 59°27' E 024°46'8 7.8
2017-Jul-18 14:01N 59°34' E 024°42'1223.0
2017-Jul-18 13:31N 59°45' E 024°47'1224.7
2017-Jul-18 13:01N 59°57' E 024°53'1122.1
2017-Jul-18 12:31N 60°08' E 024°54'1 1.7
2017-Jul-18 12:01N 60°09' E 024°55'0 0.0
2017-Jul-18 11:30N 60°09' E 024°55'0 0.4
2017-Jul-18 11:01N 60°09' E 024°54'918.6
2017-Jul-18 10:31N 59°60' E 024°55'1325.6
2017-Jul-18 10:01N 59°48' E 024°46'1325.3
2017-Jul-18 09:30N 59°35' E 024°42'917.1
2017-Jul-18 09:00N 59°27' E 024°46'0 0.2
2017-Jul-18 08:31N 59°27' E 024°46'0 0.0
2017-Jul-18 08:01N 59°27' E 024°46'4 8.9
2017-Jul-18 07:30N 59°31' E 024°44'918.0
2017-Jul-18 07:00N 59°40' E 024°43'1019.3
2017-Jul-18 06:30N 59°49' E 024°52'918.9
2017-Jul-18 06:01N 59°58' E 024°56'918.4
2017-Jul-18 05:30N 60°07' E 024°54'2 4.0
2017-Jul-18 05:00N 60°09' E 024°55'0 0.0
2017-Jul-18 04:30N 60°09' E 024°55'0 0.0
2017-Jul-18 04:00N 60°09' E 024°55'0 0.0
2017-Jul-18 03:30N 60°09' E 024°55'0 0.0
2017-Jul-18 03:00N 60°09' E 024°55'0 0.0
2017-Jul-18 02:30N 60°09' E 024°55'0 0.0
2017-Jul-18 02:00N 60°09' E 024°55'0 0.0
2017-Jul-18 01:30N 60°09' E 024°55'0 0.0
2017-Jul-18 00:57N 60°09' E 024°55'0 0.0
2017-Jul-18 00:30N 60°09' E 024°55'0 0.0
2017-Jul-18 00:00N 60°09' E 024°55'0 0.0
2017-Jul-17 23:30N 60°09' E 024°55'0 0.0
2017-Jul-17 23:00N 60°09' E 024°55'0 0.0
2017-Jul-17 22:30N 60°09' E 024°55'0 0.0
2017-Jul-17 21:57N 60°09' E 024°55'0 0.0
2017-Jul-17 21:30N 60°09' E 024°55'0 0.0
2017-Jul-17 21:00N 60°09' E 024°55'0 0.0
2017-Jul-17 20:29N 60°09' E 024°55'0 0.0
2017-Jul-17 19:58N 60°09' E 024°55'0 0.0
2017-Jul-17 19:30N 60°09' E 024°55'0 0.0
2017-Jul-17 19:00N 60°09' E 024°55'0 0.0
2017-Jul-17 18:30N 60°09' E 024°55'0 0.0
2017-Jul-17 18:00N 60°09' E 024°55'5 9.1
2017-Jul-17 17:30N 60°04' E 024°53'1020.8
2017-Jul-17 17:00N 59°54' E 024°53'1223.2
2017-Jul-17 16:31N 59°43' E 024°47'1121.4
2017-Jul-17 16:01N 59°32' E 024°44'611.3
2017-Jul-17 15:30N 59°27' E 024°46'0 0.0
2017-Jul-17 15:00N 59°27' E 024°46'0 0.1
2017-Jul-17 14:30N 59°27' E 024°46'918.2
2017-Jul-17 14:01N 59°35' E 024°40'1326.3
2017-Jul-17 13:31N 59°48' E 024°45'1325.9
2017-Jul-17 13:01N 60°00' E 024°54'917.0
2017-Jul-17 12:30N 60°09' E 024°55'0 0.0
2017-Jul-17 12:00N 60°09' E 024°55'0 0.0
2017-Jul-17 11:30N 60°09' E 024°55'1 1.2
2017-Jul-17 11:00N 60°08' E 024°54'1121.1
2017-Jul-17 10:31N 59°58' E 024°54'1326.0
2017-Jul-17 10:01N 59°46' E 024°44'1325.3
2017-Jul-17 09:31N 59°33' E 024°43'713.1
2017-Jul-17 09:01N 59°27' E 024°46'0 0.0
2017-Jul-17 08:31N 59°27' E 024°46'0 0.0
2017-Jul-17 08:01N 59°27' E 024°46'4 7.3
2017-Jul-17 07:30N 59°30' E 024°44'917.7
2017-Jul-17 07:01N 59°39' E 024°42'1019.7
2017-Jul-17 06:31N 59°48' E 024°51'1020.2
2017-Jul-17 06:00N 59°58' E 024°56'918.5
2017-Jul-17 05:31N 60°07' E 024°54'2 4.5
2017-Jul-17 05:00N 60°09' E 024°55'0 0.0
2017-Jul-17 04:30N 60°09' E 024°55'0 0.0
2017-Jul-17 04:00N 60°09' E 024°55'0 0.0
2017-Jul-17 03:30N 60°09' E 024°55'0 0.0
2017-Jul-17 03:00N 60°09' E 024°55'0 0.0
2017-Jul-17 02:30N 60°09' E 024°55'0 0.0
2017-Jul-17 02:00N 60°09' E 024°55'0 0.0
2017-Jul-17 01:30N 60°09' E 024°55'0 0.0
2017-Jul-17 01:00N 60°09' E 024°55'0 0.0
2017-Jul-17 00:30N 60°09' E 024°55'0 0.0
2017-Jul-17 00:00N 60°09' E 024°55'0 0.0
2017-Jul-16 23:30N 60°09' E 024°55'0 0.0
2017-Jul-16 23:00N 60°09' E 024°55'0 0.0
2017-Jul-16 22:30N 60°09' E 024°55'0 0.0
2017-Jul-16 22:00N 60°09' E 024°55'0 0.0
2017-Jul-16 21:30N 60°09' E 024°55'0 0.0
2017-Jul-16 20:59N 60°09' E 024°55'0 0.0
2017-Jul-16 20:29N 60°09' E 024°55'0 0.0
2017-Jul-16 19:59N 60°09' E 024°55'0 0.0
2017-Jul-16 19:28N 60°09' E 024°55'0 0.0
2017-Jul-16 19:00N 60°09' E 024°55'0 0.0
2017-Jul-16 18:30N 60°09' E 024°55'0 0.0
2017-Jul-16 18:01N 60°09' E 024°55'5 9.3
2017-Jul-16 17:30N 60°04' E 024°53'1020.9
2017-Jul-16 17:00N 59°54' E 024°53'1121.3
2017-Jul-16 16:30N 59°44' E 024°47'1121.7
2017-Jul-16 16:00N 59°33' E 024°43'612.8
2017-Jul-16 15:31N 59°27' E 024°46'0 0.1
2017-Jul-16 15:00N 59°27' E 024°46'0 0.0
2017-Jul-16 14:30N 59°27' E 024°46'510.1
2017-Jul-16 14:00N 59°32' E 024°43'1020.1
2017-Jul-16 13:30N 59°42' E 024°41'1020.7
2017-Jul-16 13:00N 59°51' E 024°48'1121.6
2017-Jul-16 12:31N 60°02' E 024°54'714.6
2017-Jul-16 12:00N 60°09' E 024°55'0 0.0
2017-Jul-16 11:30N 60°09' E 024°55'2 3.5
2017-Jul-16 11:01N 60°07' E 024°54'1122.9
2017-Jul-16 10:31N 59°56' E 024°53'1122.7
2017-Jul-16 10:01N 59°45' E 024°50'1223.2
2017-Jul-16 09:30N 59°33' E 024°43'713.9
2017-Jul-16 09:00N 59°27' E 024°46'0 0.0
2017-Jul-16 08:31N 59°27' E 024°46'0 0.0
2017-Jul-16 08:00N 59°27' E 024°46'4 8.8
2017-Jul-16 07:30N 59°31' E 024°44'918.6
2017-Jul-16 07:00N 59°40' E 024°43'816.6
2017-Jul-16 06:31N 59°48' E 024°48'918.5
2017-Jul-16 06:01N 59°57' E 024°53'918.1
2017-Jul-16 05:31N 60°06' E 024°54'3 5.7
2017-Jul-16 05:00N 60°09' E 024°55'0 0.0
2017-Jul-16 04:30N 60°09' E 024°55'0 0.0
2017-Jul-16 04:00N 60°09' E 024°55'0 0.0
2017-Jul-16 03:30N 60°09' E 024°55'0 0.0
2017-Jul-16 02:59N 60°09' E 024°55'0 0.0
2017-Jul-16 02:25N 60°09' E 024°55'0 0.0
2017-Jul-16 01:58N 60°09' E 024°55'0 0.0
2017-Jul-16 01:30N 60°09' E 024°55'0 0.0
2017-Jul-16 00:58N 60°09' E 024°55'0 0.0
2017-Jul-16 00:28N 60°09' E 024°55'0 0.0
2017-Jul-15 23:59N 60°09' E 024°55'0 0.0
2017-Jul-15 23:28N 60°09' E 024°55'0 0.0
2017-Jul-15 22:58N 60°09' E 024°55'0 0.0
2017-Jul-15 22:25N 60°09' E 024°55'0 0.0
2017-Jul-15 22:00N 60°09' E 024°55'0 0.0
2017-Jul-15 21:28N 60°09' E 024°55'0 0.0
2017-Jul-15 20:59N 60°09' E 024°55'0 0.0
2017-Jul-15 20:25N 60°09' E 024°55'0 0.0
2017-Jul-15 20:00N 60°09' E 024°55'0 0.0
2017-Jul-15 19:24N 60°09' E 024°55'0 0.0
2017-Jul-15 18:56N 60°09' E 024°55'0 0.0
2017-Jul-15 18:27N 60°09' E 024°55'0 0.0
2017-Jul-15 18:01N 60°09' E 024°55'510.9
2017-Jul-15 17:30N 60°04' E 024°53'1020.1
2017-Jul-15 17:00N 59°54' E 024°53'1020.4
2017-Jul-15 16:30N 59°44' E 024°47'1020.2
2017-Jul-15 16:01N 59°34' E 024°43'714.8
2017-Jul-15 15:31N 59°27' E 024°46'0 0.2
2017-Jul-15 15:01N 59°27' E 024°46'6 5.9
2017-Jul-15 14:01N 59°32' E 024°43'918.1
2017-Jul-15 13:31N 59°41' E 024°45'1020.6
2017-Jul-15 13:00N 59°51' E 024°51'1020.4
2017-Jul-15 12:31N 60°01' E 024°54'815.4
2017-Jul-15 12:00N 60°09' E 024°55'0 0.0
2017-Jul-15 11:30N 60°09' E 024°55'1 1.2
2017-Jul-15 11:00N 60°08' E 024°54'1019.4
2017-Jul-15 10:30N 59°59' E 024°54'1122.4
2017-Jul-15 10:01N 59°48' E 024°46'1122.1
2017-Jul-15 09:31N 59°37' E 024°41'1020.8
2017-Jul-15 09:01N 59°27' E 024°46'1 1.7
2017-Jul-15 08:30N 59°27' E 024°46'0 0.0
2017-Jul-15 08:01N 59°27' E 024°46'510.8
2017-Jul-15 07:31N 59°32' E 024°43'917.1
2017-Jul-15 07:01N 59°40' E 024°44'918.7
2017-Jul-15 06:31N 59°49' E 024°49'918.7
2017-Jul-15 06:00N 59°59' E 024°53'917.7
2017-Jul-15 05:30N 60°07' E 024°54'2 3.1
2017-Jul-15 05:00N 60°09' E 024°55'0 0.0
2017-Jul-15 04:30N 60°09' E 024°55'0 0.0
2017-Jul-15 04:00N 60°09' E 024°55'0 0.2
2017-Jul-15 03:31N 60°09' E 024°55'4 8.6
2017-Jul-15 03:00N 60°05' E 024°54'713.6
2017-Jul-15 02:30N 59°58' E 024°54'4 8.9
2017-Jul-15 02:00N 59°54' E 024°50'4 8.8
2017-Jul-15 01:30N 59°50' E 024°46'4 8.8
2017-Jul-15 01:00N 59°46' E 024°41'4 8.7
2017-Jul-15 00:30N 59°42' E 024°41'4 8.8
2017-Jul-15 00:00N 59°37' E 024°41'4 8.4
2017-Jul-14 23:30N 59°33' E 024°43'4 8.3
2017-Jul-14 23:00N 59°29' E 024°46'3 5.5
2017-Jul-14 22:30N 59°27' E 024°46'0 0.0
2017-Jul-14 22:00N 59°27' E 024°46'1 1.7
2017-Jul-14 21:31N 59°27' E 024°47'815.5
2017-Jul-14 21:00N 59°34' E 024°41'917.1
2017-Jul-14 20:30N 59°43' E 024°46'918.4
2017-Jul-14 20:01N 59°52' E 024°50'918.3
2017-Jul-14 19:31N 60°01' E 024°54'816.6
2017-Jul-14 19:00N 60°09' E 024°55'0 0.1
2017-Jul-14 18:31N 60°09' E 024°55'0 0.0
2017-Jul-14 18:00N 60°09' E 024°55'510.2
2017-Jul-14 17:30N 60°04' E 024°54'1019.9
2017-Jul-14 17:01N 59°54' E 024°53'1019.9
2017-Jul-14 16:30N 59°44' E 024°48'1122.4
2017-Jul-14 16:00N 59°33' E 024°43'713.3
2017-Jul-14 15:31N 59°27' E 024°46'0 0.3
2017-Jul-14 15:00N 59°27' E 024°46'0 0.0
2017-Jul-14 14:31N 59°27' E 024°46'713.6
2017-Jul-14 14:01N 59°33' E 024°42'1121.6
2017-Jul-14 13:31N 59°44' E 024°47'1223.6
2017-Jul-14 13:01N 59°55' E 024°52'1122.7
2017-Jul-14 12:30N 60°07' E 024°54'2 4.7
2017-Jul-14 12:00N 60°09' E 024°55'0 0.0
2017-Jul-14 11:30N 60°09' E 024°55'0 1.0
2017-Jul-14 11:01N 60°09' E 024°54'816.8
2017-Jul-14 10:31N 60°00' E 024°54'1224.0
2017-Jul-14 10:01N 59°49' E 024°47'1223.1
2017-Jul-14 09:31N 59°38' E 024°41'1121.7
2017-Jul-14 09:01N 59°27' E 024°47'1 1.2
2017-Jul-14 08:30N 59°27' E 024°46'0 0.0
2017-Jul-14 08:00N 59°27' E 024°46'4 8.8
2017-Jul-14 07:30N 59°31' E 024°44'917.7
2017-Jul-14 07:01N 59°40' E 024°43'1019.3
2017-Jul-14 06:31N 59°49' E 024°49'1019.5
2017-Jul-14 06:00N 59°58' E 024°53'918.3
2017-Jul-14 05:30N 60°08' E 024°54'1 2.7
2017-Jul-14 04:58N 60°09' E 024°55'0 0.0
2017-Jul-14 04:29N 60°09' E 024°55'0 0.0
2017-Jul-14 03:58N 60°09' E 024°55'0 0.4
2017-Jul-14 03:30N 60°09' E 024°54'612.1
2017-Jul-14 03:00N 60°03' E 024°54'611.7
2017-Jul-14 02:30N 59°57' E 024°53'4 8.7
2017-Jul-14 02:00N 59°53' E 024°53'4 8.4
2017-Jul-14 01:30N 59°48' E 024°53'4 8.3
2017-Jul-14 01:00N 59°45' E 024°49'4 8.4
2017-Jul-14 00:31N 59°41' E 024°45'4 8.7
2017-Jul-14 00:00N 59°37' E 024°41'4 8.9
2017-Jul-13 23:30N 59°33' E 024°44'4 8.4
2017-Jul-13 23:00N 59°29' E 024°46'2 4.3
2017-Jul-13 22:30N 59°27' E 024°46'0 0.0
2017-Jul-13 22:00N 59°27' E 024°46'1 1.1
2017-Jul-13 21:30N 59°27' E 024°47'816.2
2017-Jul-13 21:00N 59°35' E 024°41'1020.5
2017-Jul-13 20:31N 59°44' E 024°47'816.9
2017-Jul-13 20:00N 59°52' E 024°51'1019.5
2017-Jul-13 19:31N 60°02' E 024°54'713.6
2017-Jul-13 19:00N 60°09' E 024°55'0 0.1
2017-Jul-13 18:30N 60°09' E 024°55'0 0.0
2017-Jul-13 18:00N 60°09' E 024°55'3 5.1
2017-Jul-13 17:31N 60°06' E 024°54'1122.0
2017-Jul-13 17:01N 59°55' E 024°53'1223.2
2017-Jul-13 16:31N 59°44' E 024°48'1121.9
2017-Jul-13 16:01N 59°34' E 024°43'713.9
2017-Jul-13 15:30N 59°27' E 024°46'0 0.1
2017-Jul-13 15:00N 59°27' E 024°46'0 0.0
2017-Jul-13 14:30N 59°27' E 024°46'715.0
2017-Jul-13 14:01N 59°34' E 024°41'1225.0
2017-Jul-13 13:31N 59°46' E 024°44'1325.8
2017-Jul-13 13:00N 59°58' E 024°54'1020.7
2017-Jul-13 12:30N 60°09' E 024°54'0 0.8
2017-Jul-13 12:00N 60°09' E 024°55'0 0.0
2017-Jul-13 11:29N 60°09' E 024°55'0 0.5
2017-Jul-13 11:01N 60°09' E 024°55'918.1
2017-Jul-13 10:31N 59°60' E 024°55'1223.1
2017-Jul-13 10:01N 59°49' E 024°47'1122.8
2017-Jul-13 09:31N 59°38' E 024°41'1121.9
2017-Jul-13 09:00N 59°27' E 024°47'1 1.6
2017-Jul-13 08:30N 59°27' E 024°46'0 0.0
2017-Jul-13 08:01N 59°27' E 024°46'4 8.8
2017-Jul-13 07:31N 59°31' E 024°44'917.2
2017-Jul-13 07:01N 59°40' E 024°43'1019.4
2017-Jul-13 06:31N 59°48' E 024°51'1019.0
2017-Jul-13 06:00N 59°57' E 024°56'918.1
2017-Jul-13 05:30N 60°06' E 024°54'3 5.0
2017-Jul-13 05:00N 60°09' E 024°55'0 0.0
2017-Jul-13 04:30N 60°09' E 024°55'0 0.0
2017-Jul-13 04:00N 60°09' E 024°55'0 0.4
2017-Jul-13 03:30N 60°09' E 024°55'510.2
2017-Jul-13 03:00N 60°04' E 024°54'612.7
2017-Jul-13 02:30N 59°57' E 024°54'611.1
2017-Jul-13 02:00N 59°52' E 024°54'5 9.1
2017-Jul-13 01:30N 59°48' E 024°51'4 7.9
2017-Jul-13 01:00N 59°45' E 024°45'4 8.0
2017-Jul-13 00:30N 59°41' E 024°41'5 9.1
2017-Jul-13 00:00N 59°37' E 024°41'4 8.9
2017-Jul-12 23:30N 59°33' E 024°44'4 8.9
2017-Jul-12 23:01N 59°28' E 024°47'2 3.6
2017-Jul-12 22:30N 59°27' E 024°46'0 0.0
2017-Jul-12 22:00N 59°27' E 024°46'1 1.5
2017-Jul-12 21:31N 59°27' E 024°47'713.5
2017-Jul-12 21:00N 59°33' E 024°42'815.4
2017-Jul-12 20:30N 59°41' E 024°44'917.8
2017-Jul-12 20:01N 59°50' E 024°49'816.8
2017-Jul-12 19:30N 59°58' E 024°53'917.3
2017-Jul-12 19:01N 60°06' E 024°54'3 5.3
2017-Jul-12 18:31N 60°09' E 024°55'0 0.1
2017-Jul-12 18:00N 60°09' E 024°55'612.3
2017-Jul-12 17:30N 60°03' E 024°54'1019.7
2017-Jul-12 17:00N 59°53' E 024°52'918.9
2017-Jul-12 16:30N 59°44' E 024°47'1121.5
2017-Jul-12 16:00N 59°33' E 024°43'713.4
2017-Jul-12 15:31N 59°27' E 024°46'0 0.3
2017-Jul-12 15:00N 59°27' E 024°46'7 7.2
2017-Jul-12 14:01N 59°34' E 024°42'1326.3
2017-Jul-12 13:31N 59°46' E 024°49'1223.5
2017-Jul-12 13:01N 59°58' E 024°54'1019.5
2017-Jul-12 12:30N 60°07' E 024°55'1 2.7
2017-Jul-12 11:58N 60°09' E 024°55'0 0.0
2017-Jul-12 11:30N 60°09' E 024°55'2 3.1
2017-Jul-12 11:00N 60°07' E 024°54'917.5
2017-Jul-12 10:31N 59°59' E 024°54'1223.1
2017-Jul-12 10:01N 59°48' E 024°45'1223.0
2017-Jul-12 09:31N 59°37' E 024°41'1020.2
2017-Jul-12 09:00N 59°27' E 024°47'0 0.8
2017-Jul-12 08:31N 59°27' E 024°46'0 0.0
2017-Jul-12 08:00N 59°27' E 024°46'3 5.8
2017-Jul-12 07:30N 59°30' E 024°45'918.4
2017-Jul-12 07:00N 59°39' E 024°41'1020.3
2017-Jul-12 06:30N 59°48' E 024°50'1020.3
2017-Jul-12 06:00N 59°57' E 024°56'1019.5
2017-Jul-12 05:31N 60°07' E 024°54'2 3.7
2017-Jul-12 05:00N 60°09' E 024°55'0 0.0
2017-Jul-12 04:25N 60°09' E 024°55'0 0.0
2017-Jul-12 03:58N 60°09' E 024°55'0 0.0
2017-Jul-12 03:28N 60°09' E 024°55'0 0.0
2017-Jul-12 02:58N 60°09' E 024°55'0 0.0
2017-Jul-12 02:28N 60°09' E 024°55'0 0.0
2017-Jul-12 01:58N 60°09' E 024°55'0 0.0
2017-Jul-12 01:28N 60°09' E 024°55'0 0.0
2017-Jul-12 00:58N 60°09' E 024°55'0 0.0
2017-Jul-12 00:28N 60°09' E 024°55'0 0.0
2017-Jul-11 23:58N 60°09' E 024°55'0 0.0
2017-Jul-11 23:28N 60°09' E 024°55'0 0.0
2017-Jul-11 22:58N 60°09' E 024°55'0 0.0
2017-Jul-11 22:28N 60°09' E 024°55'0 0.0
2017-Jul-11 21:58N 60°09' E 024°55'0 0.0
2017-Jul-11 21:25N 60°09' E 024°55'0 0.0
2017-Jul-11 20:58N 60°09' E 024°55'0 0.0
2017-Jul-11 20:30N 60°09' E 024°55'0 0.0
2017-Jul-11 19:59N 60°09' E 024°55'0 0.0
2017-Jul-11 19:29N 60°09' E 024°55'0 0.0
2017-Jul-11 18:58N 60°09' E 024°55'0 0.0
2017-Jul-11 18:28N 60°09' E 024°55'0 0.0
2017-Jul-11 18:00N 60°09' E 024°55'5 9.9
2017-Jul-11 17:30N 60°04' E 024°54'1223.6
2017-Jul-11 17:01N 59°52' E 024°52'1224.0
2017-Jul-11 16:31N 59°41' E 024°45'  

Dump ship's entire track history